createdAt,value
2023-04-30T00:01:22.285Z,99924.69
2023-04-30T00:03:48.836Z,99926.84
2023-04-30T00:06:15.987Z,99931.59
2023-04-30T00:08:42.618Z,99932.09
2023-04-30T00:11:09.130Z,99935.53
2023-04-30T00:13:35.611Z,99930.06
2023-04-30T00:16:02.133Z,99926.16
2023-04-30T00:18:28.684Z,99932.75
2023-04-30T00:20:55.112Z,99939.19
2023-04-30T00:23:21.651Z,99928.19
2023-04-30T00:25:48.116Z,99930.91
2023-04-30T00:28:14.568Z,99938.69
2023-04-30T00:30:41.131Z,99941.75
2023-04-30T00:33:07.737Z,99943.44
2023-04-30T00:35:34.233Z,99940.88
2023-04-30T00:38:00.688Z,99947.34
2023-04-30T00:40:27.135Z,99943.38
2023-04-30T00:42:55.694Z,99949.63
2023-04-30T00:45:23.439Z,99939.09
2023-04-30T00:47:49.979Z,99945.56
2023-04-30T00:50:16.723Z,99951.47
2023-04-30T00:52:44.241Z,99944.66
2023-04-30T00:55:12.161Z,99950.41
2023-04-30T00:57:39.078Z,99947.22
2023-04-30T01:00:06.328Z,99943.72
2023-04-30T01:02:33.112Z,99950.50
2023-04-30T01:04:59.638Z,99955.69
2023-04-30T01:07:28.370Z,99952.41
2023-04-30T01:09:55.203Z,99948.19
2023-04-30T01:12:33.177Z,99948.03
2023-04-30T01:15:25.023Z,99948.63
2023-04-30T01:18:14.737Z,99955.78
2023-04-30T01:20:46.286Z,99959.41
2023-04-30T01:23:50.061Z,99963.56
2023-04-30T01:26:25.919Z,99959.31
2023-04-30T01:28:53.371Z,99962.03
2023-04-30T01:31:20.549Z,99964.88
2023-04-30T01:33:47.064Z,99961.63
2023-04-30T01:36:31.974Z,99963.69
2023-04-30T01:39:22.280Z,99956.47
2023-04-30T01:42:29.197Z,99962.63
2023-04-30T01:45:17.820Z,99969.38
2023-04-30T01:47:53.834Z,99964.66
2023-04-30T01:50:39.757Z,99964.41
2023-04-30T01:53:16.996Z,99965.56
2023-04-30T01:55:49.742Z,99964.91
2023-04-30T01:58:16.713Z,99975.88
2023-04-30T02:00:43.189Z,99973.00
2023-04-30T02:03:09.816Z,99973.69
2023-04-30T02:05:36.452Z,99975.91
2023-04-30T02:08:03.397Z,99975.13
2023-04-30T02:10:30.678Z,99971.91
2023-04-30T02:12:57.238Z,99974.56
2023-04-30T02:15:23.893Z,99984.03
2023-04-30T02:17:50.634Z,99984.63
2023-04-30T02:20:17.228Z,99982.56
2023-04-30T02:22:43.713Z,99988.28
2023-04-30T02:25:12.387Z,99990.94
2023-04-30T02:27:38.991Z,99990.72
2023-04-30T02:30:06.466Z,99997.03
2023-04-30T02:32:33.249Z,99998.94
2023-04-30T02:34:59.825Z,99991.63
2023-04-30T02:37:26.411Z,99999.91
2023-04-30T02:39:53.558Z,100007.84
2023-04-30T02:42:20.293Z,100000.66
2023-04-30T02:44:46.869Z,100007.69
2023-04-30T02:47:13.412Z,100018.03
2023-04-30T02:49:40.108Z,100017.06
2023-04-30T02:52:09.510Z,100022.19
2023-04-30T02:54:36.496Z,100021.63
2023-04-30T02:57:03.449Z,100030.56
2023-04-30T02:59:29.994Z,100038.44
2023-04-30T03:01:56.493Z,100043.03
2023-04-30T03:04:23.531Z,100039.97
2023-04-30T03:06:50.079Z,100042.69
2023-04-30T03:09:16.804Z,100038.97
2023-04-30T03:11:43.259Z,100037.88
2023-04-30T03:14:09.729Z,100049.00
2023-04-30T03:16:36.701Z,100046.81
2023-04-30T03:19:03.228Z,100044.53
2023-04-30T03:21:29.723Z,100041.53
2023-04-30T03:23:56.180Z,100050.72
2023-04-30T03:26:22.684Z,100049.41
2023-04-30T03:28:49.585Z,100054.31
2023-04-30T03:31:16.102Z,100067.22
2023-04-30T03:33:42.694Z,100066.91
2023-04-30T03:36:09.189Z,100081.75
2023-04-30T03:38:35.637Z,100074.06
2023-04-30T03:41:02.250Z,100080.88
2023-04-30T03:43:28.809Z,100092.47
2023-04-30T03:45:55.334Z,100096.38
2023-04-30T03:48:21.846Z,100095.13
2023-04-30T03:50:48.445Z,100098.53
2023-04-30T03:53:14.919Z,100110.53
2023-04-30T03:55:42.063Z,100108.75
2023-04-30T03:58:08.617Z,100124.28
2023-04-30T04:00:35.164Z,100112.47
2023-04-30T04:03:01.727Z,100123.88
2023-04-30T04:05:29.217Z,100123.88
2023-04-30T04:07:55.870Z,100139.22
2023-04-30T04:10:22.447Z,100144.56
2023-04-30T04:12:49.067Z,100139.53
2023-04-30T04:15:15.592Z,100151.28
2023-04-30T04:17:42.302Z,100151.41
2023-04-30T04:20:10.138Z,100158.50
2023-04-30T04:22:37.958Z,100162.22
2023-04-30T04:25:04.642Z,100162.13
2023-04-30T04:27:31.202Z,100165.06
2023-04-30T04:29:57.738Z,100159.28
2023-04-30T04:32:24.736Z,100168.25
2023-04-30T04:34:51.483Z,100177.28
2023-04-30T04:37:18.133Z,100179.56
2023-04-30T04:39:45.262Z,100188.34
2023-04-30T04:42:12.060Z,100193.88
2023-04-30T04:44:39.411Z,100198.44
2023-04-30T04:47:06.165Z,100200.44
2023-04-30T04:49:32.885Z,100208.56
2023-04-30T04:51:59.659Z,100208.22
2023-04-30T04:54:26.229Z,100206.19
2023-04-30T04:56:52.779Z,100217.28
2023-04-30T04:59:19.288Z,100209.06
2023-04-30T05:01:45.902Z,100218.41
2023-04-30T05:04:14.050Z,100218.22
2023-04-30T05:06:41.532Z,100219.88
2023-04-30T05:09:09.450Z,100224.88
2023-04-30T05:11:36.499Z,100232.53
2023-04-30T05:14:03.202Z,100231.53
2023-04-30T05:16:30.216Z,100241.94
2023-04-30T05:18:56.863Z,100240.19
2023-04-30T05:21:23.506Z,100246.38
2023-04-30T05:23:49.983Z,100247.88
2023-04-30T05:26:16.721Z,100260.69
2023-04-30T05:28:43.265Z,100259.81
2023-04-30T05:31:09.837Z,100264.66
2023-04-30T05:33:37.173Z,100259.81
2023-04-30T05:36:03.916Z,100260.91
2023-04-30T05:38:30.786Z,100273.19
2023-04-30T05:40:57.297Z,100265.75
2023-04-30T05:43:23.762Z,100270.50
2023-04-30T05:45:50.473Z,100277.03
2023-04-30T05:48:17.020Z,100283.78
2023-04-30T05:50:43.723Z,100280.09
2023-04-30T05:53:10.226Z,100286.53
2023-04-30T05:55:36.948Z,100284.16
2023-04-30T05:58:03.453Z,100277.94
2023-04-30T06:00:30.148Z,100293.97
2023-04-30T06:02:56.732Z,100293.09
2023-04-30T06:05:23.369Z,100292.00
2023-04-30T06:07:50.247Z,100296.47
2023-04-30T06:10:16.814Z,100301.44
2023-04-30T06:12:43.259Z,100298.09
2023-04-30T06:15:10.025Z,100302.50
2023-04-30T06:17:37.061Z,100304.31
2023-04-30T06:20:06.981Z,100308.44
2023-04-30T06:22:34.205Z,100316.13
2023-04-30T06:25:00.959Z,100312.22
2023-04-30T06:27:32.299Z,100311.31
2023-04-30T06:30:00.877Z,100316.56
2023-04-30T06:32:27.707Z,100322.03
2023-04-30T06:34:55.308Z,100316.97
2023-04-30T06:37:21.854Z,100318.78
2023-04-30T06:39:48.969Z,100318.91
2023-04-30T06:42:15.453Z,100310.25
2023-04-30T06:44:42.108Z,100307.72
2023-04-30T06:47:08.672Z,100313.81
2023-04-30T06:49:35.292Z,100310.06
2023-04-30T06:52:01.951Z,100313.03
2023-04-30T06:54:28.532Z,100311.34
2023-04-30T06:56:54.997Z,100320.22
2023-04-30T06:59:21.656Z,100314.06
2023-04-30T07:01:48.363Z,100323.75
2023-04-30T07:04:14.881Z,100317.59
2023-04-30T07:06:41.787Z,100319.81
2023-04-30T07:09:08.853Z,100324.91
2023-04-30T07:11:35.453Z,100329.16
2023-04-30T07:14:02.095Z,100317.69
2023-04-30T07:16:28.689Z,100332.22
2023-04-30T07:18:55.366Z,100322.81
2023-04-30T07:21:21.991Z,100331.06
2023-04-30T07:23:51.500Z,100337.06
2023-04-30T07:26:18.379Z,100326.38
2023-04-30T07:28:48.009Z,100335.44
2023-04-30T07:31:16.587Z,100330.59
2023-04-30T07:33:43.527Z,100337.06
2023-04-30T07:36:11.414Z,100337.50
2023-04-30T07:38:37.909Z,100336.81
2023-04-30T07:41:04.391Z,100348.13
2023-04-30T07:43:31.912Z,100349.50
2023-04-30T07:45:59.420Z,100350.56
2023-04-30T07:48:25.885Z,100353.41
2023-04-30T07:50:53.018Z,100358.38
2023-04-30T07:53:19.832Z,100344.72
2023-04-30T07:55:46.595Z,100362.63
2023-04-30T07:58:13.226Z,100360.28
2023-04-30T08:00:40.066Z,100357.19
2023-04-30T08:03:06.840Z,100370.81
2023-04-30T08:05:33.397Z,100366.34
2023-04-30T08:08:00.819Z,100371.53
2023-04-30T08:10:27.387Z,100369.53
2023-04-30T08:12:53.921Z,100372.66
2023-04-30T08:15:23.462Z,100366.69
2023-04-30T08:17:51.278Z,100387.16
2023-04-30T08:20:18.153Z,100376.53
2023-04-30T08:22:45.427Z,100383.00
2023-04-30T08:25:12.372Z,100377.00
2023-04-30T08:27:39.463Z,100386.69
2023-04-30T08:30:09.028Z,100389.38
2023-04-30T08:32:36.344Z,100387.59
2023-04-30T08:35:07.146Z,100394.38
2023-04-30T08:37:34.080Z,100395.88
2023-04-30T08:40:00.574Z,100399.19
2023-04-30T08:42:36.547Z,100385.75
2023-04-30T08:45:04.264Z,100400.28
2023-04-30T08:47:31.140Z,100399.31
2023-04-30T08:49:57.804Z,100393.34
2023-04-30T08:52:25.175Z,100406.22
2023-04-30T08:54:54.191Z,100410.97
2023-04-30T08:57:20.896Z,100408.34
2023-04-30T08:59:47.740Z,100408.16
2023-04-30T09:02:14.467Z,100398.63
2023-04-30T09:04:41.203Z,100406.44
2023-04-30T09:07:09.551Z,100416.03
2023-04-30T09:09:39.432Z,100414.41
2023-04-30T09:12:18.393Z,100415.00
2023-04-30T09:15:03.648Z,100410.97
2023-04-30T09:17:31.199Z,100422.19
2023-04-30T09:20:08.421Z,100426.38
2023-04-30T09:22:36.766Z,100429.06
2023-04-30T09:25:03.416Z,100421.97
2023-04-30T09:27:29.905Z,100418.38
2023-04-30T09:29:57.014Z,100426.44
2023-04-30T09:32:23.693Z,100433.50
2023-04-30T09:34:50.408Z,100428.59
2023-04-30T09:37:17.014Z,100428.88
2023-04-30T09:39:54.260Z,100431.09
2023-04-30T09:42:21.472Z,100434.66
2023-04-30T09:44:48.568Z,100424.63
2023-04-30T09:47:19.286Z,100437.09
2023-04-30T09:49:52.539Z,100434.69
2023-04-30T09:52:20.331Z,100444.06
2023-04-30T09:54:47.218Z,100427.69
2023-04-30T09:57:15.584Z,100438.72
2023-04-30T09:59:46.632Z,100448.94
2023-04-30T10:02:16.973Z,100426.34
2023-04-30T10:04:45.063Z,100426.03
2023-04-30T10:07:22.237Z,100422.84
2023-04-30T10:10:03.125Z,100432.09
2023-04-30T10:12:44.437Z,100432.47
2023-04-30T10:15:31.414Z,100429.06
2023-04-30T10:18:04.331Z,100426.03
2023-04-30T10:20:32.276Z,100435.69
2023-04-30T10:22:59.761Z,100426.19
2023-04-30T10:25:27.979Z,100431.47
2023-04-30T10:27:54.549Z,100427.72
2023-04-30T10:30:22.380Z,100435.72
2023-04-30T10:32:55.612Z,100422.78
2023-04-30T10:35:28.915Z,100434.19
2023-04-30T10:38:01.518Z,100431.31
2023-04-30T10:40:28.168Z,100424.28
2023-04-30T10:42:55.270Z,100422.97
2023-04-30T10:45:38.399Z,100423.63
2023-04-30T10:48:06.536Z,100426.88
2023-04-30T10:50:33.365Z,100424.84
2023-04-30T10:53:03.960Z,100423.47
2023-04-30T10:55:31.413Z,100425.53
2023-04-30T10:57:58.666Z,100428.94
2023-04-30T11:00:29.507Z,100425.50
2023-04-30T11:02:58.121Z,100432.44
2023-04-30T11:05:38.383Z,100446.06
2023-04-30T11:08:06.355Z,100437.78
2023-04-30T11:10:34.784Z,100432.50
2023-04-30T11:13:10.316Z,100435.22
2023-04-30T11:15:45.482Z,100433.16
2023-04-30T11:18:13.596Z,100437.94
2023-04-30T11:20:44.290Z,100452.41
2023-04-30T11:23:28.181Z,100441.16
2023-04-30T11:26:04.839Z,100430.59
2023-04-30T11:28:35.706Z,100446.78
2023-04-30T11:31:02.685Z,100445.28
2023-04-30T11:33:30.595Z,100449.13
2023-04-30T11:35:59.327Z,100451.72
2023-04-30T11:38:29.970Z,100450.84
2023-04-30T11:40:57.927Z,100447.28
2023-04-30T11:43:28.908Z,100451.66
2023-04-30T11:46:21.504Z,100444.91
2023-04-30T11:48:48.194Z,100454.44
2023-04-30T11:51:23.939Z,100450.44
2023-04-30T11:53:52.348Z,100450.34
2023-04-30T11:56:21.422Z,100465.66
2023-04-30T11:58:49.413Z,100460.50
2023-04-30T12:01:16.719Z,100463.25
2023-04-30T12:03:50.603Z,100464.13
2023-04-30T12:06:27.590Z,100463.44
2023-04-30T12:08:55.276Z,100466.50
2023-04-30T12:11:26.546Z,100457.81
2023-04-30T12:13:54.917Z,100468.56
2023-04-30T12:16:21.557Z,100467.19
2023-04-30T12:18:49.005Z,100460.91
2023-04-30T12:21:17.024Z,100450.81
2023-04-30T12:23:45.123Z,100465.78
2023-04-30T12:26:11.781Z,100465.75
2023-04-30T12:28:38.391Z,100467.56
2023-04-30T12:31:05.951Z,100458.63
2023-04-30T12:33:32.726Z,100466.38
2023-04-30T12:35:59.537Z,100455.97
2023-04-30T12:38:26.079Z,100462.94
2023-04-30T12:40:52.664Z,100463.66
2023-04-30T12:43:19.242Z,100458.63
2023-04-30T12:45:51.821Z,100464.44
2023-04-30T12:48:23.715Z,100464.53
2023-04-30T12:51:02.965Z,100458.25
2023-04-30T12:53:33.576Z,100451.56
2023-04-30T12:56:15.488Z,100463.22
2023-04-30T12:58:47.657Z,100469.38
2023-04-30T13:01:17.312Z,100449.41
2023-04-30T13:03:44.103Z,100448.91
2023-04-30T13:06:10.855Z,100452.53
2023-04-30T13:08:49.769Z,100448.38
2023-04-30T13:11:26.754Z,100452.59
2023-04-30T13:13:55.624Z,100441.13
2023-04-30T13:16:22.923Z,100454.59
2023-04-30T13:18:49.593Z,100444.88
2023-04-30T13:21:16.104Z,100452.44
2023-04-30T13:23:52.112Z,100452.22
2023-04-30T13:26:21.463Z,100454.44
2023-04-30T13:28:48.062Z,100448.69
2023-04-30T13:31:14.697Z,100459.44
2023-04-30T13:33:41.600Z,100451.38
2023-04-30T13:36:08.086Z,100456.34
2023-04-30T13:38:34.578Z,100446.91
2023-04-30T13:41:01.546Z,100449.19
2023-04-30T13:43:28.421Z,100451.56
2023-04-30T13:45:54.922Z,100450.78
2023-04-30T13:48:21.815Z,100445.03
2023-04-30T13:50:48.407Z,100458.19
2023-04-30T13:53:15.273Z,100453.94
2023-04-30T13:55:41.854Z,100445.53
2023-04-30T13:58:08.371Z,100447.28
2023-04-30T14:00:34.867Z,100457.31
2023-04-30T14:03:01.811Z,100450.91
2023-04-30T14:05:28.431Z,100441.25
2023-04-30T14:07:54.923Z,100444.41
2023-04-30T14:10:21.598Z,100441.22
2023-04-30T14:12:48.825Z,100445.31
2023-04-30T14:15:15.571Z,100446.00
2023-04-30T14:17:42.137Z,100442.94
2023-04-30T14:20:09.330Z,100445.50
2023-04-30T14:22:38.485Z,100443.72
2023-04-30T14:25:05.635Z,100454.50
2023-04-30T14:27:32.361Z,100457.59
2023-04-30T14:29:58.850Z,100454.91
2023-04-30T14:32:26.110Z,100461.00
2023-04-30T14:34:53.348Z,100459.78
2023-04-30T14:37:19.997Z,100451.84
2023-04-30T14:39:46.679Z,100458.09
2023-04-30T14:42:13.194Z,100459.53
2023-04-30T14:44:40.419Z,100443.31
2023-04-30T14:47:07.005Z,100457.63
2023-04-30T14:49:33.625Z,100454.03
2023-04-30T14:52:00.168Z,100468.47
2023-04-30T14:54:26.952Z,100457.44
2023-04-30T14:56:53.541Z,100457.81
2023-04-30T14:59:20.146Z,100463.94
2023-04-30T15:01:46.900Z,100457.03
2023-04-30T15:04:13.452Z,100456.44
2023-04-30T15:06:40.153Z,100466.56
2023-04-30T15:09:07.040Z,100466.19
2023-04-30T15:11:33.706Z,100462.31
2023-04-30T15:14:00.373Z,100463.31
2023-04-30T15:16:27.624Z,100453.50
2023-04-30T15:18:54.340Z,100475.44
2023-04-30T15:21:20.967Z,100462.72
2023-04-30T15:23:47.729Z,100466.84
2023-04-30T15:26:15.381Z,100460.16
2023-04-30T15:28:41.907Z,100469.38
2023-04-30T15:31:08.621Z,100469.03
2023-04-30T15:33:39.677Z,100473.06
2023-04-30T15:36:06.509Z,100470.03
2023-04-30T15:38:33.264Z,100474.97
2023-04-30T15:40:59.789Z,100462.31
2023-04-30T15:43:26.351Z,100470.56
2023-04-30T15:45:53.006Z,100475.72
2023-04-30T15:48:19.520Z,100473.38
2023-04-30T15:50:46.071Z,100475.44
2023-04-30T15:53:12.625Z,100473.44
2023-04-30T15:55:39.195Z,100474.84
2023-04-30T15:58:05.995Z,100477.88
2023-04-30T16:00:33.683Z,100479.03
2023-04-30T16:03:00.553Z,100480.91
2023-04-30T16:05:27.143Z,100482.84
2023-04-30T16:07:54.502Z,100478.09
2023-04-30T16:10:21.613Z,100487.03
2023-04-30T16:12:48.644Z,100476.88
2023-04-30T16:15:15.917Z,100475.00
2023-04-30T16:17:42.457Z,100479.91
2023-04-30T16:20:11.293Z,100485.03
2023-04-30T16:22:37.930Z,100479.28
2023-04-30T16:25:04.785Z,100479.97
2023-04-30T16:27:31.416Z,100474.00
2023-04-30T16:29:58.250Z,100479.78
2023-04-30T16:32:25.354Z,100481.84
2023-04-30T16:34:52.186Z,100479.78
2023-04-30T16:37:18.866Z,100483.84
2023-04-30T16:39:45.538Z,100484.72
2023-04-30T16:42:12.271Z,100494.44
2023-04-30T16:44:38.781Z,100488.13
2023-04-30T16:47:05.260Z,100491.47
2023-04-30T16:49:31.722Z,100494.72
2023-04-30T16:51:58.356Z,100491.47
2023-04-30T16:54:24.879Z,100490.97
2023-04-30T16:56:51.337Z,100499.00
2023-04-30T16:59:17.774Z,100492.88
2023-04-30T17:01:44.419Z,100502.56
2023-04-30T17:04:12.189Z,100492.66
2023-04-30T17:06:39.208Z,100487.88
2023-04-30T17:09:05.902Z,100499.97
2023-04-30T17:11:33.637Z,100505.06
2023-04-30T17:14:00.472Z,100497.38
2023-04-30T17:16:27.086Z,100510.97
2023-04-30T17:18:53.667Z,100508.25
2023-04-30T17:21:20.424Z,100504.34
2023-04-30T17:23:46.887Z,100516.66
2023-04-30T17:26:13.361Z,100522.34
2023-04-30T17:28:39.967Z,100523.41
2023-04-30T17:31:09.355Z,100515.22
2023-04-30T17:33:35.852Z,100522.69
2023-04-30T17:36:02.704Z,100532.00
2023-04-30T17:38:29.252Z,100527.69
2023-04-30T17:40:57.567Z,100534.78
2023-04-30T17:43:24.395Z,100528.03
2023-04-30T17:45:53.789Z,100533.50
2023-04-30T17:48:20.398Z,100532.88
2023-04-30T17:50:47.086Z,100531.06
2023-04-30T17:53:13.909Z,100545.06
2023-04-30T17:55:40.598Z,100542.13
2023-04-30T17:58:10.144Z,100549.84
2023-04-30T18:00:39.065Z,100541.78
2023-04-30T18:03:06.589Z,100548.38
2023-04-30T18:05:35.540Z,100554.31
2023-04-30T18:08:02.462Z,100543.81
2023-04-30T18:10:29.113Z,100564.41
2023-04-30T18:12:58.113Z,100561.91
2023-04-30T18:15:24.621Z,100563.47
2023-04-30T18:17:51.308Z,100557.88
2023-04-30T18:20:18.118Z,100563.19
2023-04-30T18:22:44.862Z,100562.81
2023-04-30T18:25:13.105Z,100571.81
2023-04-30T18:27:43.398Z,100572.06
2023-04-30T18:30:10.639Z,100569.81
2023-04-30T18:32:37.449Z,100580.38
2023-04-30T18:35:04.620Z,100571.97
2023-04-30T18:37:31.968Z,100578.81
2023-04-30T18:39:59.175Z,100584.66
2023-04-30T18:42:26.020Z,100582.81
2023-04-30T18:44:52.520Z,100582.22
2023-04-30T18:47:19.186Z,100582.19
2023-04-30T18:49:45.747Z,100592.19
2023-04-30T18:52:12.320Z,100588.91
2023-04-30T18:54:38.903Z,100584.31
2023-04-30T18:57:06.311Z,100590.88
2023-04-30T18:59:33.315Z,100586.75
2023-04-30T19:02:00.218Z,100591.84
2023-04-30T19:04:27.292Z,100590.44
2023-04-30T19:06:55.614Z,100591.69
2023-04-30T19:09:22.205Z,100600.63
2023-04-30T19:11:49.017Z,100604.31
2023-04-30T19:14:15.522Z,100604.88
2023-04-30T19:16:42.022Z,100611.84
2023-04-30T19:19:08.631Z,100607.56
2023-04-30T19:21:36.310Z,100605.56
2023-04-30T19:24:05.891Z,100614.19
2023-04-30T19:26:32.934Z,100610.78
2023-04-30T19:28:59.856Z,100611.34
2023-04-30T19:31:26.794Z,100609.03
2023-04-30T19:33:53.512Z,100615.53
2023-04-30T19:36:20.212Z,100604.28
2023-04-30T19:38:46.725Z,100612.94
2023-04-30T19:41:13.599Z,100619.78
2023-04-30T19:43:40.148Z,100621.19
2023-04-30T19:46:07.557Z,100617.44
2023-04-30T19:48:34.158Z,100621.19
2023-04-30T19:51:03.522Z,100628.72
2023-04-30T19:53:30.318Z,100626.16
2023-04-30T19:55:57.402Z,100630.69
2023-04-30T19:58:23.931Z,100624.56
2023-04-30T20:00:50.470Z,100631.06
2023-04-30T20:03:17.964Z,100630.09
2023-04-30T20:05:44.696Z,100624.97
2023-04-30T20:08:11.262Z,100630.75
2023-04-30T20:10:38.863Z,100622.19
2023-04-30T20:13:06.062Z,100628.63
2023-04-30T20:15:33.013Z,100625.50
2023-04-30T20:18:01.334Z,100625.16
2023-04-30T20:20:29.034Z,100622.94
2023-04-30T20:22:56.194Z,100627.03
2023-04-30T20:25:25.823Z,100626.44
2023-04-30T20:27:52.271Z,100627.94
2023-04-30T20:30:18.825Z,100635.78
2023-04-30T20:32:45.499Z,100632.38
2023-04-30T20:35:12.004Z,100622.09
2023-04-30T20:37:38.501Z,100632.50
2023-04-30T20:40:08.101Z,100644.91
2023-04-30T20:42:34.861Z,100639.16
2023-04-30T20:45:03.168Z,100648.47
2023-04-30T20:47:31.886Z,100637.44
2023-04-30T20:49:58.650Z,100639.75
2023-04-30T20:52:25.389Z,100644.91
2023-04-30T20:54:51.990Z,100641.22
2023-04-30T20:57:18.489Z,100645.91
2023-04-30T20:59:44.945Z,100636.72
2023-04-30T21:02:11.788Z,100640.78
2023-04-30T21:04:38.318Z,100649.59
2023-04-30T21:07:05.109Z,100644.31
2023-04-30T21:09:32.773Z,100643.94
2023-04-30T21:11:59.456Z,100648.63
2023-04-30T21:14:25.954Z,100639.28
2023-04-30T21:16:52.616Z,100650.28
2023-04-30T21:19:19.098Z,100656.06
2023-04-30T21:21:46.360Z,100662.88
2023-04-30T21:24:13.132Z,100667.56
2023-04-30T21:26:39.715Z,100671.06
2023-04-30T21:29:06.171Z,100673.88
2023-04-30T21:31:32.810Z,100673.38
2023-04-30T21:33:59.357Z,100684.50
2023-04-30T21:36:25.849Z,100686.44
2023-04-30T21:38:52.569Z,100688.50
2023-04-30T21:41:19.764Z,100688.41
2023-04-30T21:43:46.285Z,100692.56
2023-04-30T21:46:14.302Z,100690.47
2023-04-30T21:48:41.167Z,100705.59
2023-04-30T21:51:17.434Z,100704.56
2023-04-30T21:53:44.456Z,100709.72
2023-04-30T21:56:11.651Z,100713.66
2023-04-30T21:58:38.701Z,100718.75
2023-04-30T22:01:05.365Z,100713.38
2023-04-30T22:03:32.151Z,100718.25
2023-04-30T22:05:59.265Z,100724.94
2023-04-30T22:08:26.042Z,100715.44
2023-04-30T22:10:58.412Z,100725.91
2023-04-30T22:13:28.398Z,100726.31
2023-04-30T22:15:55.277Z,100733.13
2023-04-30T22:18:22.705Z,100739.59
2023-04-30T22:20:49.972Z,100746.09
2023-04-30T22:23:17.144Z,100740.56
2023-04-30T22:25:43.627Z,100746.91
2023-04-30T22:28:10.275Z,100756.72
2023-04-30T22:30:37.727Z,100754.81
2023-04-30T22:33:04.407Z,100759.94
2023-04-30T22:35:32.760Z,100765.78
2023-04-30T22:38:00.480Z,100767.63
2023-04-30T22:40:27.096Z,100765.94
2023-04-30T22:42:54.112Z,100762.94
2023-04-30T22:45:20.698Z,100758.78
2023-04-30T22:47:47.336Z,100769.22
2023-04-30T22:50:13.917Z,100775.41
2023-04-30T22:52:40.377Z,100771.22
2023-04-30T22:55:07.458Z,100761.69
2023-04-30T22:57:33.958Z,100770.66
2023-04-30T23:00:00.873Z,100771.78
2023-04-30T23:02:28.675Z,100770.16
2023-04-30T23:04:55.375Z,100775.00
2023-04-30T23:07:21.965Z,100768.88
2023-04-30T23:09:49.267Z,100769.09
2023-04-30T23:12:16.001Z,100769.94
2023-04-30T23:14:42.488Z,100765.75
2023-04-30T23:17:09.089Z,100776.16
2023-04-30T23:19:35.847Z,100771.13
2023-04-30T23:22:02.311Z,100774.13
2023-04-30T23:24:28.812Z,100773.16
2023-04-30T23:26:57.720Z,100778.84
2023-04-30T23:29:25.053Z,100774.66
2023-04-30T23:31:53.806Z,100773.59
2023-04-30T23:34:20.793Z,100772.31
2023-04-30T23:36:47.235Z,100775.63
2023-04-30T23:39:13.716Z,100771.31
2023-04-30T23:41:40.324Z,100779.72
2023-04-30T23:44:06.790Z,100780.50
2023-04-30T23:46:33.256Z,100781.31
2023-04-30T23:48:59.804Z,100778.44
2023-04-30T23:51:26.245Z,100782.41
2023-04-30T23:53:52.944Z,100785.41
2023-04-30T23:56:19.453Z,100781.00
2023-04-30T23:58:45.966Z,100774.66
